createdAt,value
2017-12-22T00:02:35.729Z,80.90
2017-12-22T00:05:05.468Z,81.00
2017-12-22T00:07:35.005Z,80.90
2017-12-22T00:10:03.055Z,80.90
2017-12-22T00:12:32.094Z,80.90
2017-12-22T00:14:59.942Z,80.90
2017-12-22T00:17:28.018Z,80.90
2017-12-22T00:19:56.187Z,80.90
2017-12-22T00:22:29.240Z,80.90
2017-12-22T00:24:57.248Z,81.00
2017-12-22T00:27:26.132Z,80.90
2017-12-22T00:29:54.572Z,80.90
2017-12-22T00:32:23.192Z,80.90
2017-12-22T00:34:51.704Z,80.70
2017-12-22T00:37:19.911Z,80.60
2017-12-22T00:39:49.325Z,80.60
2017-12-22T00:42:18.697Z,80.60
2017-12-22T00:44:47.957Z,80.60
2017-12-22T00:47:16.008Z,80.60
2017-12-22T00:49:44.638Z,80.40
2017-12-22T00:52:14.737Z,80.00
2017-12-22T00:54:44.752Z,80.00
2017-12-22T00:57:13.403Z,80.10
2017-12-22T00:59:42.058Z,80.10
2017-12-22T01:02:10.012Z,80.10
2017-12-22T01:04:39.499Z,80.00
2017-12-22T01:07:09.411Z,80.00
2017-12-22T01:09:37.877Z,79.90
2017-12-22T01:12:05.996Z,79.70
2017-12-22T01:14:34.382Z,79.60
2017-12-22T01:19:11.327Z,79.40
2017-12-22T01:21:39.645Z,79.20
2017-12-22T01:24:08.404Z,79.20
2017-12-22T01:26:37.572Z,79.10
2017-12-22T01:29:06.950Z,79.30
2017-12-22T01:31:35.546Z,79.20
2017-12-22T01:34:03.828Z,79.10
2017-12-22T01:36:32.865Z,78.70
2017-12-22T01:39:02.452Z,78.70
2017-12-22T01:41:30.803Z,78.50
2017-12-22T01:43:58.884Z,78.30
2017-12-22T01:46:27.008Z,78.50
2017-12-22T01:48:55.588Z,78.60
2017-12-22T01:51:24.031Z,78.70
2017-12-22T01:53:53.057Z,78.90
2017-12-22T01:56:21.337Z,78.90
2017-12-22T01:58:49.986Z,78.80
2017-12-22T02:01:18.776Z,78.90
2017-12-22T02:03:48.776Z,79.00
2017-12-22T02:06:18.075Z,79.00
2017-12-22T02:08:46.364Z,78.80
2017-12-22T02:11:16.039Z,78.90
2017-12-22T02:13:44.742Z,78.90
2017-12-22T02:16:13.297Z,78.90
2017-12-22T02:18:43.071Z,78.90
2017-12-22T02:21:12.599Z,79.00
2017-12-22T02:23:41.627Z,78.90
2017-12-22T02:26:11.252Z,79.10
2017-12-22T02:28:40.219Z,79.10
2017-12-22T02:31:08.813Z,79.00
2017-12-22T02:33:37.956Z,78.90
2017-12-22T02:36:07.087Z,78.60
2017-12-22T02:38:36.439Z,78.50
2017-12-22T02:41:04.583Z,78.70
2017-12-22T02:43:33.110Z,79.00
2017-12-22T02:46:01.013Z,79.20
2017-12-22T02:48:30.444Z,79.50
2017-12-22T02:50:59.419Z,79.70
2017-12-22T02:53:27.848Z,79.90
2017-12-22T02:55:56.036Z,79.70
2017-12-22T02:58:25.085Z,79.60
2017-12-22T03:00:53.288Z,79.60
2017-12-22T03:03:22.080Z,79.70
2017-12-22T03:05:50.250Z,79.70
2017-12-22T03:08:18.288Z,79.80
2017-12-22T03:10:50.966Z,80.20
2017-12-22T03:13:18.762Z,80.30
2017-12-22T03:15:47.041Z,80.60
2017-12-22T03:18:15.044Z,80.70
2017-12-22T03:20:43.631Z,81.00
2017-12-22T03:23:16.687Z,81.10
2017-12-22T03:25:44.569Z,81.10
2017-12-22T03:28:12.414Z,81.20
2017-12-22T03:30:40.855Z,81.20
2017-12-22T03:33:08.825Z,81.20
2017-12-22T03:35:36.874Z,81.20
2017-12-22T03:38:05.621Z,81.40
2017-12-22T03:40:33.526Z,81.40
2017-12-22T03:43:01.669Z,81.30
2017-12-22T03:45:29.755Z,81.20
2017-12-22T03:47:57.791Z,81.20
2017-12-22T03:50:25.817Z,81.20
2017-12-22T03:52:54.584Z,81.60
2017-12-22T03:55:27.843Z,81.30
2017-12-22T03:57:56.466Z,81.40
2017-12-22T04:00:24.369Z,81.30
2017-12-22T04:02:52.488Z,81.30
2017-12-22T04:05:20.361Z,81.30
2017-12-22T04:07:48.313Z,81.60
2017-12-22T04:10:16.407Z,81.60
2017-12-22T04:12:44.268Z,81.40
2017-12-22T04:15:12.302Z,81.30
2017-12-22T04:17:41.343Z,81.30
2017-12-22T04:20:09.187Z,81.30
2017-12-22T04:22:37.173Z,81.30
2017-12-22T04:25:05.248Z,81.30
2017-12-22T04:27:34.362Z,81.30
2017-12-22T04:30:02.546Z,81.30
2017-12-22T04:32:31.997Z,81.30
2017-12-22T04:35:00.630Z,81.40
2017-12-22T04:37:28.782Z,81.30
2017-12-22T04:39:59.446Z,81.30
2017-12-22T04:42:33.051Z,81.30
2017-12-22T04:45:01.366Z,81.30
2017-12-22T04:47:29.662Z,81.40
2017-12-22T04:49:57.556Z,81.40
2017-12-22T04:52:25.819Z,81.60
2017-12-22T04:54:53.810Z,81.40
2017-12-22T04:57:21.699Z,81.40
2017-12-22T04:59:49.917Z,81.50
2017-12-22T05:02:18.568Z,81.40
2017-12-22T05:04:46.564Z,81.40
2017-12-22T05:07:16.520Z,81.40
2017-12-22T05:09:44.390Z,82.00
2017-12-22T05:12:12.373Z,81.40
2017-12-22T05:14:40.698Z,81.30
2017-12-22T05:17:08.612Z,81.30
2017-12-22T05:19:36.623Z,81.30
2017-12-22T05:22:04.697Z,81.30
2017-12-22T05:24:32.832Z,81.20
2017-12-22T05:27:01.498Z,81.40
2017-12-22T05:29:29.381Z,80.90
2017-12-22T05:31:57.863Z,80.80
2017-12-22T05:34:25.687Z,80.90
2017-12-22T05:36:53.976Z,81.00
2017-12-22T05:39:22.200Z,81.20
2017-12-22T05:41:50.239Z,81.30
2017-12-22T05:44:19.205Z,81.40
2017-12-22T05:46:47.126Z,81.40
2017-12-22T05:49:15.236Z,81.60
2017-12-22T05:51:45.011Z,82.20
2017-12-22T05:54:12.930Z,81.50
2017-12-22T05:56:41.031Z,81.50
2017-12-22T05:59:08.947Z,81.60
2017-12-22T06:01:36.998Z,81.50
2017-12-22T06:04:05.394Z,81.60
2017-12-22T06:06:34.100Z,82.10
2017-12-22T06:09:03.115Z,81.90
2017-12-22T06:11:34.261Z,81.90
2017-12-22T06:14:02.306Z,82.10
2017-12-22T06:16:30.641Z,82.20
2017-12-22T06:18:58.642Z,82.50
2017-12-22T06:21:26.531Z,82.60
2017-12-22T06:23:55.815Z,82.50
2017-12-22T06:26:27.550Z,82.50
2017-12-22T06:28:58.363Z,82.50
2017-12-22T06:31:30.100Z,82.60
2017-12-22T06:33:57.995Z,82.50
2017-12-22T06:36:38.006Z,82.70
2017-12-22T06:39:13.695Z,82.60
2017-12-22T06:41:48.477Z,82.60
2017-12-22T06:44:16.800Z,82.60
2017-12-22T06:46:45.488Z,82.50
2017-12-22T06:49:17.803Z,82.50
2017-12-22T06:51:52.232Z,82.50
2017-12-22T06:54:20.158Z,82.50
2017-12-22T06:56:48.971Z,82.40
2017-12-22T06:59:16.915Z,82.40
2017-12-22T07:01:45.926Z,82.30
2017-12-22T07:04:15.617Z,82.30
2017-12-22T07:06:43.634Z,82.10
2017-12-22T07:09:11.614Z,82.30
2017-12-22T07:11:41.055Z,82.20
2017-12-22T07:14:09.838Z,82.00
2017-12-22T07:16:38.578Z,82.10
2017-12-22T07:19:06.788Z,82.10
2017-12-22T07:21:54.065Z,82.30
2017-12-22T07:24:48.821Z,82.10
2017-12-22T07:27:31.725Z,81.90
2017-12-22T07:30:45.889Z,81.90
2017-12-22T07:35:59.851Z,82.00
2017-12-22T07:38:32.930Z,82.00
2017-12-22T07:41:01.372Z,82.00
2017-12-22T07:43:29.246Z,82.00
2017-12-22T07:45:57.273Z,81.90
2017-12-22T07:48:56.123Z,81.90
2017-12-22T07:51:29.243Z,81.80
2017-12-22T07:53:58.880Z,82.00
2017-12-22T07:56:29.750Z,82.00
2017-12-22T07:58:57.727Z,82.00
2017-12-22T08:01:29.173Z,81.80
2017-12-22T08:03:59.063Z,81.70
2017-12-22T08:06:27.618Z,81.80
2017-12-22T08:08:56.730Z,81.80
2017-12-22T08:11:25.728Z,81.60
2017-12-22T08:13:53.622Z,81.70
2017-12-22T08:16:22.590Z,81.50
2017-12-22T08:18:50.930Z,81.40
2017-12-22T08:21:18.850Z,81.90
2017-12-22T08:23:52.298Z,81.60
2017-12-22T08:26:20.434Z,81.60
2017-12-22T08:29:04.193Z,81.60
2017-12-22T08:31:54.112Z,81.60
2017-12-22T08:34:24.010Z,81.70
2017-12-22T08:36:52.648Z,81.40
2017-12-22T08:42:41.902Z,81.00
2017-12-22T08:45:11.814Z,81.20
2017-12-22T08:47:39.786Z,81.20
2017-12-22T08:50:08.055Z,80.80
2017-12-22T08:52:36.313Z,81.00
2017-12-22T08:55:42.202Z,80.90
2017-12-22T08:58:10.188Z,80.80
2017-12-22T09:00:38.269Z,80.70
2017-12-22T09:03:12.460Z,80.60
2017-12-22T09:05:44.176Z,80.30
2017-12-22T09:08:12.097Z,80.80
2017-12-22T09:10:41.237Z,80.50
2017-12-22T09:13:09.070Z,80.40
2017-12-22T09:15:37.866Z,80.20
2017-12-22T09:18:06.597Z,80.80
2017-12-22T09:20:35.268Z,80.30
2017-12-22T09:23:13.316Z,80.00
2017-12-22T09:25:41.243Z,80.00
2017-12-22T09:28:09.367Z,80.10
2017-12-22T09:30:37.283Z,79.90
2017-12-22T09:33:20.527Z,79.90
2017-12-22T09:35:49.069Z,79.60
2017-12-22T09:38:17.938Z,79.40
2017-12-22T09:40:51.451Z,80.00
2017-12-22T09:43:38.851Z,79.80
2017-12-22T09:46:12.476Z,79.90
2017-12-22T09:48:40.647Z,79.70
2017-12-22T09:51:08.845Z,79.50
2017-12-22T09:53:38.452Z,79.40
2017-12-22T09:56:07.257Z,79.40
2017-12-22T09:58:36.153Z,79.50
2017-12-22T10:01:05.089Z,79.80
2017-12-22T10:03:32.995Z,79.80
2017-12-22T10:06:00.969Z,79.60
2017-12-22T10:08:29.849Z,79.90
2017-12-22T10:10:59.882Z,79.80
2017-12-22T10:13:29.677Z,79.70
2017-12-22T10:16:00.963Z,79.60
2017-12-22T10:18:30.497Z,79.60
2017-12-22T10:21:03.540Z,79.80
2017-12-22T10:23:36.208Z,80.40
2017-12-22T10:26:08.558Z,80.40
2017-12-22T10:28:38.057Z,80.50
2017-12-22T10:31:10.158Z,80.30
2017-12-22T10:33:42.524Z,80.00
2017-12-22T10:36:11.831Z,79.70
2017-12-22T10:39:06.758Z,79.70
2017-12-22T10:41:36.800Z,79.20
2017-12-22T10:44:06.051Z,79.40
2017-12-22T10:46:37.527Z,79.30
2017-12-22T10:49:12.948Z,78.50
2017-12-22T10:54:29.242Z,78.20
2017-12-22T10:56:58.274Z,77.30
2017-12-22T10:59:27.468Z,76.80
2017-12-22T11:01:57.626Z,76.60
2017-12-22T11:04:25.837Z,76.20
2017-12-22T11:06:54.482Z,76.60
2017-12-22T11:09:23.392Z,77.00
2017-12-22T11:11:53.503Z,77.80
2017-12-22T11:14:27.607Z,78.30
2017-12-22T11:16:57.337Z,78.30
2017-12-22T11:19:25.852Z,78.10
2017-12-22T11:21:54.049Z,77.60
2017-12-22T11:24:25.193Z,77.40
2017-12-22T11:26:57.010Z,77.60
2017-12-22T11:29:33.505Z,77.80
2017-12-22T11:32:03.688Z,81.20
2017-12-22T11:35:03.028Z,81.20
2017-12-22T11:37:40.909Z,80.90
2017-12-22T11:40:10.434Z,80.80
2017-12-22T11:42:38.726Z,81.50
2017-12-22T11:45:08.953Z,80.80
2017-12-22T11:47:46.137Z,81.00
2017-12-22T11:50:39.504Z,81.70
2017-12-22T11:53:09.619Z,81.60
2017-12-22T11:55:45.854Z,81.70
2017-12-22T11:58:22.607Z,81.10
2017-12-22T12:00:51.515Z,81.30
2017-12-22T12:03:19.541Z,81.30
2017-12-22T12:05:50.648Z,81.20
2017-12-22T12:08:18.620Z,81.20
2017-12-22T12:10:51.509Z,81.10
2017-12-22T12:13:22.272Z,81.00
2017-12-22T12:15:51.720Z,80.90
2017-12-22T12:18:21.491Z,80.70
2017-12-22T12:20:58.857Z,80.30
2017-12-22T12:23:28.123Z,80.80
2017-12-22T12:25:57.830Z,80.80
2017-12-22T12:28:25.830Z,81.00
2017-12-22T12:30:56.279Z,81.00
2017-12-22T12:33:24.880Z,80.70
2017-12-22T12:35:54.847Z,80.30
2017-12-22T12:38:26.117Z,80.30
2017-12-22T12:40:56.403Z,80.20
2017-12-22T12:47:09.631Z,80.30
2017-12-22T12:49:38.469Z,80.30
2017-12-22T12:52:06.582Z,80.10
2017-12-22T12:57:07.227Z,79.70
2017-12-22T12:59:36.323Z,79.40
2017-12-22T13:02:08.314Z,78.90
2017-12-22T13:04:39.441Z,79.60
2017-12-22T13:07:08.512Z,79.90
2017-12-22T13:09:39.057Z,80.30
2017-12-22T13:12:10.334Z,81.40
2017-12-22T13:15:09.027Z,80.70
2017-12-22T13:17:38.309Z,81.00
2017-12-22T13:20:08.126Z,81.10
2017-12-22T13:22:50.934Z,81.00
2017-12-22T13:25:42.653Z,80.80
2017-12-22T13:28:14.532Z,80.70
2017-12-22T13:30:44.689Z,80.80
2017-12-22T13:33:31.154Z,81.00
2017-12-22T13:36:04.663Z,80.80
2017-12-22T13:38:33.621Z,80.60
2017-12-22T13:41:06.102Z,80.50
2017-12-22T13:43:35.777Z,80.20
2017-12-22T13:46:06.726Z,80.00
2017-12-22T13:48:37.130Z,80.50
2017-12-22T13:51:05.604Z,80.50
2017-12-22T13:53:47.290Z,80.90
2017-12-22T13:56:16.693Z,80.90
2017-12-22T13:58:45.440Z,80.70
2017-12-22T14:01:15.647Z,81.10
2017-12-22T14:06:20.429Z,81.00
2017-12-22T14:08:48.352Z,81.00
2017-12-22T14:11:17.765Z,81.20
2017-12-22T14:13:47.348Z,81.20
2017-12-22T14:16:15.991Z,80.70
2017-12-22T14:18:44.395Z,80.70
2017-12-22T14:21:15.719Z,80.50
2017-12-22T14:23:44.900Z,80.50
2017-12-22T14:26:16.514Z,80.70
2017-12-22T14:28:44.642Z,80.70
2017-12-22T14:31:16.897Z,81.00
2017-12-22T14:34:05.640Z,81.00
2017-12-22T14:39:54.424Z,80.90
2017-12-22T14:42:22.562Z,80.90
2017-12-22T14:44:52.851Z,81.20
2017-12-22T14:47:32.279Z,81.20
2017-12-22T14:50:03.270Z,81.50
2017-12-22T14:52:51.712Z,81.50
2017-12-22T14:55:21.561Z,81.60
2017-12-22T14:57:49.892Z,81.40
2017-12-22T15:00:18.396Z,81.20
2017-12-22T15:02:49.989Z,81.40
2017-12-22T15:05:18.870Z,81.40
2017-12-22T15:07:47.441Z,81.40
2017-12-22T15:10:43.912Z,81.40
2017-12-22T15:14:00.931Z,81.60
2017-12-22T15:16:30.024Z,81.70
2017-12-22T15:18:57.952Z,81.70
2017-12-22T15:21:26.474Z,81.40
2017-12-22T15:23:54.573Z,80.70
2017-12-22T15:26:50.581Z,80.10
2017-12-22T15:29:20.231Z,79.90
2017-12-22T15:31:48.926Z,80.20
2017-12-22T15:34:23.123Z,80.50
2017-12-22T15:36:55.591Z,80.60
2017-12-22T15:39:36.106Z,80.50
2017-12-22T15:42:12.734Z,80.90
2017-12-22T15:44:42.626Z,80.80
2017-12-22T15:47:29.857Z,80.80
2017-12-22T15:49:59.342Z,80.50
2017-12-22T15:52:29.413Z,80.20
2017-12-22T15:55:04.254Z,80.20
2017-12-22T15:57:33.941Z,79.90
2017-12-22T16:00:05.926Z,80.20
2017-12-22T16:02:35.064Z,80.40
2017-12-22T16:05:03.848Z,80.40
2017-12-22T16:07:33.126Z,80.40
2017-12-22T16:10:04.901Z,80.80
2017-12-22T16:12:34.202Z,81.40
2017-12-22T16:15:03.620Z,81.30
2017-12-22T16:17:33.603Z,81.90
2017-12-22T16:20:02.909Z,82.30
2017-12-22T16:22:38.276Z,82.50
2017-12-22T16:25:07.199Z,81.90
2017-12-22T16:27:47.693Z,82.90
2017-12-22T16:30:16.721Z,82.90
2017-12-22T16:32:45.204Z,82.60
2017-12-22T16:35:14.845Z,82.50
2017-12-22T16:37:43.882Z,82.30
2017-12-22T16:40:12.727Z,82.00
2017-12-22T16:42:41.883Z,81.20
2017-12-22T16:45:10.098Z,80.00
2017-12-22T16:47:39.584Z,79.80
2017-12-22T16:50:08.336Z,79.60
2017-12-22T16:52:42.136Z,79.50
2017-12-22T16:55:12.177Z,79.40
2017-12-22T16:57:40.968Z,79.30
2017-12-22T17:00:10.675Z,79.10
2017-12-22T17:02:39.647Z,79.20
2017-12-22T17:05:11.043Z,79.20
2017-12-22T17:07:41.055Z,79.30
2017-12-22T17:10:10.132Z,79.30
2017-12-22T17:12:41.461Z,79.50
2017-12-22T17:15:10.377Z,79.50
2017-12-22T17:17:40.673Z,79.60
2017-12-22T17:20:13.546Z,79.50
2017-12-22T17:22:45.085Z,79.70
2017-12-22T17:25:15.289Z,79.80
2017-12-22T17:27:44.858Z,79.50
2017-12-22T17:30:16.694Z,79.30
2017-12-22T17:32:45.744Z,79.20
2017-12-22T17:35:15.805Z,79.00
2017-12-22T17:37:52.528Z,78.60
2017-12-22T17:40:22.522Z,78.70
2017-12-22T17:42:51.973Z,79.20
2017-12-22T17:45:21.583Z,79.20
2017-12-22T17:47:50.148Z,79.60
2017-12-22T17:50:20.711Z,80.40
2017-12-22T17:52:50.469Z,80.40
2017-12-22T17:55:20.334Z,81.00
2017-12-22T17:57:53.214Z,80.90
2017-12-22T18:00:24.465Z,81.20
2017-12-22T18:02:52.945Z,81.50
2017-12-22T18:05:35.865Z,81.90
2017-12-22T18:08:17.818Z,81.70
2017-12-22T18:10:49.464Z,81.90
2017-12-22T18:13:55.058Z,82.10
2017-12-22T18:16:25.889Z,82.50
2017-12-22T18:18:54.649Z,82.40
2017-12-22T18:21:38.804Z,82.60
2017-12-22T18:24:08.334Z,82.70
2017-12-22T18:26:37.435Z,82.80
2017-12-22T18:29:06.497Z,82.70
2017-12-22T18:31:40.668Z,82.70
2017-12-22T18:34:08.854Z,82.80
2017-12-22T18:36:37.085Z,82.70
2017-12-22T18:39:05.967Z,82.60
2017-12-22T18:41:36.185Z,82.80
2017-12-22T18:44:05.519Z,82.80
2017-12-22T18:47:21.739Z,82.90
2017-12-22T18:49:49.885Z,82.90
2017-12-22T18:52:20.812Z,83.10
2017-12-22T18:54:49.873Z,83.20
2017-12-22T18:57:22.309Z,83.20
2017-12-22T18:59:52.516Z,83.50
2017-12-22T19:02:20.682Z,83.50
2017-12-22T19:04:48.610Z,83.80
2017-12-22T19:07:16.794Z,83.80
2017-12-22T19:09:46.413Z,83.80
2017-12-22T19:12:17.664Z,83.70
2017-12-22T19:14:45.734Z,83.80
2017-12-22T19:17:14.481Z,83.90
2017-12-22T19:19:43.130Z,84.10
2017-12-22T19:22:12.674Z,84.10
2017-12-22T19:24:43.533Z,84.10
2017-12-22T19:27:11.831Z,84.10
2017-12-22T19:29:40.469Z,84.00
2017-12-22T19:32:09.606Z,84.00
2017-12-22T19:34:48.297Z,84.10
2017-12-22T19:37:53.955Z,83.90
2017-12-22T19:40:21.907Z,83.90
2017-12-22T19:42:50.791Z,83.50
2017-12-22T19:45:18.754Z,83.50
2017-12-22T19:47:51.410Z,83.30
2017-12-22T19:50:20.182Z,83.20
2017-12-22T19:52:49.497Z,83.10
2017-12-22T19:55:19.674Z,82.90
2017-12-22T19:57:48.280Z,82.90
2017-12-22T20:00:26.521Z,82.90
2017-12-22T20:02:56.794Z,82.80
2017-12-22T20:05:24.697Z,82.60
2017-12-22T20:07:53.007Z,82.60
2017-12-22T20:10:21.183Z,82.50
2017-12-22T20:13:01.486Z,82.50
2017-12-22T20:15:29.946Z,82.50
2017-12-22T20:17:57.980Z,82.60
2017-12-22T20:20:26.488Z,82.80
2017-12-22T20:22:54.836Z,82.80
2017-12-22T20:25:26.422Z,82.80
2017-12-22T20:27:54.687Z,82.50
2017-12-22T20:30:23.493Z,82.40
2017-12-22T20:32:51.958Z,82.70
2017-12-22T20:35:20.931Z,82.60
2017-12-22T20:37:50.284Z,82.80
2017-12-22T20:40:18.300Z,82.90
2017-12-22T20:42:47.525Z,82.90
2017-12-22T20:45:20.934Z,82.90
2017-12-22T20:50:33.488Z,82.60
2017-12-22T20:53:01.509Z,82.60
2017-12-22T20:55:33.552Z,82.70
2017-12-22T20:58:02.414Z,82.60
2017-12-22T21:00:31.285Z,82.60
2017-12-22T21:03:00.549Z,82.50
2017-12-22T21:05:28.743Z,82.50
2017-12-22T21:07:57.019Z,82.40
2017-12-22T21:10:29.018Z,83.10
2017-12-22T21:13:02.249Z,82.30
2017-12-22T21:15:34.468Z,82.30
2017-12-22T21:18:03.305Z,82.30
2017-12-22T21:20:31.980Z,82.50
2017-12-22T21:25:47.242Z,83.10
2017-12-22T21:28:15.637Z,83.10
2017-12-22T21:30:45.305Z,83.20
2017-12-22T21:33:22.381Z,83.20
2017-12-22T21:35:51.790Z,83.10
2017-12-22T21:38:19.759Z,83.10
2017-12-22T21:40:48.214Z,83.10
2017-12-22T21:43:16.295Z,83.10
2017-12-22T21:45:46.301Z,83.20
2017-12-22T21:48:15.710Z,83.20
2017-12-22T21:50:43.661Z,83.30
2017-12-22T21:53:18.098Z,83.20
2017-12-22T21:55:47.093Z,83.00
2017-12-22T21:58:15.786Z,82.90
2017-12-22T22:00:43.962Z,82.70
2017-12-22T22:03:12.001Z,82.90
2017-12-22T22:05:41.784Z,83.00
2017-12-22T22:08:11.674Z,83.50
2017-12-22T22:10:39.664Z,83.10
2017-12-22T22:13:14.293Z,83.20
2017-12-22T22:15:42.759Z,83.20
2017-12-22T22:18:13.561Z,83.10
2017-12-22T22:20:45.896Z,82.90
2017-12-22T22:23:16.428Z,82.80
2017-12-22T22:25:44.703Z,83.00
2017-12-22T22:28:12.687Z,82.90
2017-12-22T22:30:42.213Z,82.90
2017-12-22T22:33:10.669Z,83.00
2017-12-22T22:35:41.921Z,83.10
2017-12-22T22:38:10.117Z,83.30
2017-12-22T22:40:38.402Z,83.40
2017-12-22T22:43:06.510Z,83.40
2017-12-22T22:45:35.238Z,83.20
2017-12-22T22:48:07.142Z,83.30
2017-12-22T22:50:36.493Z,83.40
2017-12-22T22:53:06.916Z,83.40
2017-12-22T22:55:35.025Z,83.40
2017-12-22T22:58:03.720Z,83.30
2017-12-22T23:00:32.331Z,83.20
2017-12-22T23:03:01.423Z,83.20
2017-12-22T23:05:29.530Z,83.00
2017-12-22T23:07:57.483Z,83.10
2017-12-22T23:10:27.485Z,83.10
2017-12-22T23:13:00.564Z,83.20
2017-12-22T23:15:28.641Z,83.20
2017-12-22T23:17:57.329Z,82.60
2017-12-22T23:20:27.724Z,82.00
2017-12-22T23:22:56.182Z,82.00
2017-12-22T23:25:29.075Z,81.90
2017-12-22T23:27:58.599Z,81.70
2017-12-22T23:30:27.813Z,81.80
2017-12-22T23:32:57.780Z,81.70
2017-12-22T23:35:26.226Z,81.70
2017-12-22T23:37:54.437Z,82.00
2017-12-22T23:40:24.442Z,82.40
2017-12-22T23:42:53.322Z,82.50
2017-12-22T23:45:28.842Z,82.40
2017-12-22T23:47:59.861Z,82.80
2017-12-22T23:50:28.217Z,82.80
2017-12-22T23:52:56.806Z,82.80
2017-12-22T23:55:25.071Z,82.90
2017-12-22T23:57:56.326Z,83.10
